createdAt,value
2022-08-09T00:04:01.112Z,14.6
2022-08-09T00:23:54.421Z,14.4
2022-08-09T00:33:49.282Z,14.3
2022-08-09T00:44:08.602Z,14.2
2022-08-09T00:53:38.388Z,14.1
2022-08-09T01:13:53.708Z,14
2022-08-09T01:24:01.584Z,13.9
2022-08-09T02:14:06.886Z,13.4
2022-08-09T02:23:57.747Z,13.5
2022-08-09T02:44:01.767Z,13.4
2022-08-09T02:54:03.538Z,13.3
2022-08-09T03:04:13.528Z,13.3
2022-08-09T03:14:07.729Z,13.1
2022-08-09T03:24:10.038Z,13
2022-08-09T03:34:11.941Z,12.9
2022-08-09T03:54:16.094Z,12.7
2022-08-09T04:04:18.432Z,12.7
2022-08-09T04:14:37.978Z,12.6
2022-08-09T04:24:22.940Z,12.6
2022-08-09T04:34:30.529Z,12.5
2022-08-09T04:44:27.709Z,12.6
2022-08-09T04:54:30.014Z,12.8
2022-08-09T05:04:32.181Z,13.5
2022-08-09T05:14:34.707Z,15.8
2022-08-09T05:24:36.703Z,17.5
2022-08-09T05:34:38.388Z,18.2
2022-08-09T05:44:40.428Z,17.5
2022-08-09T05:54:42.338Z,17.5
2022-08-09T06:04:44.503Z,17.3
2022-08-09T06:14:46.196Z,17.8
2022-08-09T06:24:48.882Z,18.1
2022-08-09T06:44:54.140Z,19.4
2022-08-09T06:54:55.227Z,18.9
2022-08-09T07:04:57.739Z,19
2022-08-09T07:14:59.781Z,18.9
2022-08-09T07:25:02.103Z,19.7
2022-08-09T07:35:07.851Z,21.5
2022-08-09T07:45:15.112Z,20.3
2022-08-09T07:55:09.842Z,22.1
2022-08-09T08:05:17.808Z,21.5
2022-08-09T08:15:13.630Z,22.9
2022-08-09T08:25:15.819Z,22.3
2022-08-09T08:35:18.086Z,23.6
2022-08-09T08:45:19.389Z,22.9
2022-08-09T09:05:33.435Z,23.7
2022-08-09T09:15:28.130Z,24.8
2022-08-09T09:45:32.927Z,25.5
2022-08-09T09:55:34.938Z,24.3
2022-08-09T10:15:51.190Z,25.8
2022-08-09T10:55:55.573Z,27.3
2022-08-09T11:06:00.184Z,26.9
2022-08-09T11:45:57.599Z,26.8
2022-08-09T11:56:02.668Z,26.6
2022-08-09T12:06:01.278Z,27.6
2022-08-09T12:26:05.966Z,28.7
2022-08-09T12:36:15.567Z,27.9
2022-08-09T12:46:09.935Z,28
2022-08-09T12:56:39.249Z,28.6
2022-08-09T13:06:17.337Z,28.7
2022-08-09T13:56:25.654Z,27.9
2022-08-09T14:26:33.508Z,27.6
2022-08-09T14:56:58.386Z,27.4
2022-08-09T15:16:43.090Z,26.9
2022-08-09T15:26:45.106Z,27.2
2022-08-09T15:36:47.995Z,27.1
2022-08-09T15:46:49.651Z,27.1
2022-08-09T15:56:51.785Z,26.9
2022-08-09T16:06:53.571Z,26.8
2022-08-09T16:16:56.347Z,26.9
2022-08-09T16:26:57.582Z,26.6
2022-08-09T16:36:59.722Z,26.6
2022-08-09T16:47:01.767Z,26.4
2022-08-09T16:57:03.615Z,26.2
2022-08-09T17:08:42.398Z,25.7
2022-08-09T17:17:12.919Z,26
2022-08-09T17:27:15.300Z,25.9
2022-08-09T17:37:19.805Z,25.6
2022-08-09T17:47:14.622Z,25.6
2022-08-09T17:57:17.311Z,25.4
2022-08-09T18:17:27.828Z,25.2
2022-08-09T18:27:59.735Z,24.6
2022-08-09T18:37:46.797Z,24.3
2022-08-09T18:47:27.667Z,24
2022-08-09T18:57:38.315Z,23.7
2022-08-09T19:07:31.390Z,23.1
2022-08-09T19:17:39.704Z,22.6
2022-08-09T19:27:35.281Z,22
2022-08-09T19:37:40.983Z,21.4
2022-08-09T19:57:42.388Z,20.7
2022-08-09T20:07:57.335Z,20.4
2022-08-09T20:17:48.608Z,20
2022-08-09T20:18:08.300Z,20
2022-08-09T20:27:55.779Z,19.8
2022-08-09T20:38:19.281Z,20.3
2022-08-09T20:58:05.746Z,19.8
2022-08-09T21:08:03.497Z,19.6
2022-08-09T21:18:12.342Z,19.5
2022-08-09T21:28:11.931Z,19.3
2022-08-09T21:38:10.510Z,19.3
2022-08-09T21:48:12.256Z,19.1
2022-08-09T21:58:14.435Z,19.1
2022-08-09T22:08:16.389Z,19.3
2022-08-09T22:18:18.795Z,19.3
2022-08-09T22:28:20.971Z,19.1
2022-08-09T22:38:22.203Z,18.8
2022-08-09T22:48:35.772Z,18.8
2022-08-09T22:58:30.832Z,18.6
2022-08-09T23:08:29.427Z,18.3
2022-08-09T23:18:30.859Z,18
2022-08-09T23:28:32.541Z,17.8
2022-08-09T23:38:34.984Z,17.6
2022-08-09T23:48:36.924Z,17.3
2022-08-09T23:58:39.074Z,17.1
